x

Port Orford - 15 Nm West Of Port Orford, Or (46015) Wave Buoy

7:50pm - Sat 25th Feb 2017 All times are PST. -8 hours from GMT.

  • Sig Wave height 8.2ft
  • Swell Direction
  • Peak Period 9s
  • Average Period 8s
  • Wind
    11mph, 13mph gusts
  • Sea Temp 51°f
  • Air Temp 47°f
  • Sea Pressure 1020.3mb
  • Port Orford - 15 Nm West Of Port Orford, Or
  • Port Orford - 15 Nm West Of Port Orford, Or

More Historic Weather Station data

Upgrade to MSW Pro to gain access to the past 30 days of data for over 8000 Wavebouys and Weather Stations around the globe.

Join Pro

Comparision Forecast

View Surf forecast
   
Sat 02/25 7:50pm 8ft 9s 8s 11 13 mph 1020.3mb 51f 47f
6:50pm 8ft 14s 8s 13 16 mph 1021.1mb 52f 47f
5:50pm 7ft 9s 7s 13 16 mph 1021.4mb 52f 47f
4:50pm 6.5ft 14s 7s  -  mph 1021.6mb 52f 48f
3:50pm 6ft 14s 7s  -  mph 1021.8mb 52f 47f
2:50pm 7ft 14s 8s  -  mph 1022.1mb 52f 47f
1:50pm 7ft 14s 8s  -  mph 1022.4mb 51f 47f
12:50pm 6ft 14s 7s  -  mph 1023.1mb 51f 46f
11:50am  -   -   -   -  mph 1023.5mb 51f 46f
10:50am  -   -   -   -  mph 1023.6mb 51f 45f
9:50am  -   -   -   -  mph 1023.4mb 50f 46f
8:50am  -   -   -   -  mph 1023.3mb 50f 46f
7:50am  -   -   -   -  mph 1023.1mb 50f 45f
6:50am  -   -   -   -  mph 1022.6mb 50f 45f
5:50am  -   -   -   -  2 mph 1022.1mb 51f 45f
4:50am  -   -   -   -  mph 1021.6mb 51f 45f
3:50am  -   -   -  7 18 mph 1021.4mb 51f 44f
2:50am  -   -   -  13 18 mph 1021.3mb 51f 44f
1:50am  -   -   -  18 22 mph 1021.1mb 51f 44f
12:50am  -   -   -  16 20 mph 1021.1mb 51f 43f
Fri 02/24 11:50pm  -   -   -  16 20 mph 1021mb 51f 43f
10:50pm  -   -   -  13 18 mph 1021mb 51f 43f
9:50pm  -   -   -  16 20 mph 1020.8mb 51f 42f
8:50pm  -   -   -  9 11 mph 1020.6mb 50f 44f
7:50pm  -   -   -  18 20 mph 1020.2mb 50f 44f
6:50pm  -   -   -  11 13 mph 1020.4mb 51f 46f
5:50pm  -   -   -  11 13 mph 1020.4mb 51f 44f
4:50pm  -   -   -  11 16 mph 1020.4mb 51f 46f
3:50pm  -   -   -  9 13 mph 1020.8mb 51f 44f
2:50pm  -   -   -  11 13 mph 1021.1mb 51f 46f
1:50pm  -   -   -  13 18 mph 1021.3mb 50f 45f
12:50pm  -   -   -  13 18 mph 1022mb 50f 44f
11:50am  -   -   -  11 13 mph 1022.5mb 50f 44f
10:50am  -   -   -  9 11 mph 1022.6mb 50f 43f
9:50am  -   -   -  7 9 mph 1023mb 50f 42f
8:50am  -   -   -  11 16 mph 1022.8mb 50f 45f
7:50am  -   -   -  9 11 mph 1022.9mb 50f 44f
6:50am  -   -   -  11 18 mph 1023.2mb 50f 42f
5:50am  -   -   -  2 9 mph 1023.3mb 50f 43f
4:50am  -   -   -  2 9 mph 1023.5mb 50f 44f
3:50am  -   -   -  9 11 mph 1024.1mb 50f 43f
2:50am  -   -   -  7 9 mph 1024.6mb 50f 43f
1:50am  -   -   -  2 7 mph 1025mb 50f 44f
12:50am  -   -   -  2 4 mph 1025mb 51f 44f
Thu 02/23 11:50pm 7ft 9s 8s 4 9 mph 1025.2mb 51f 44f
10:50pm 6ft 8s 7s 2 9 mph 1025.6mb 51f 46f
9:50pm 6ft 11s 7s 4 7 mph 1025.5mb 51f 45f
8:50pm 6.5ft 9s 8s 4 7 mph 1025.4mb 51f 46f
7:50pm 6ft 11s 7s 4 7 mph 1025.6mb 51f 45f
6:50pm 6ft 11s 7s 7 9 mph 1025.6mb 51f 45f
5:50pm 6ft 11s 7s 4 7 mph 1025.7mb 52f 45f
4:50pm 6ft 8s 7s 7 9 mph 1025.8mb 52f 46f
3:50pm 6ft 11s 7s 7 9 mph 1026mb 52f 46f
2:50pm 7ft 8s 7s 7 9 mph 1026.3mb 51f 45f
1:50pm 6.5ft 8s 7s 4 7 mph 1026.5mb 51f 45f
12:50pm 6.5ft 8s 7s 2 7 mph 1026.7mb 51f 44f
11:50am 6ft 11s 7s 4 7 mph 1027.2mb 51f 44f
10:50am 7ft 8s 7s 2 7 mph 1027.2mb 51f 44f
9:50am 6ft 8s 7s 4 9 mph 1027mb 50f 43f
8:50am 6ft 8s 7s 4 11 mph 1026.4mb 50f 43f
7:50am 6ft 8s 7s 4 9 mph 1025.9mb 50f 43f
6:50am 6.5ft 12s 7s 4 9 mph 1025.5mb 50f 43f
5:50am 6ft 7s 7s 4 7 mph 1025.5mb 51f 42f
4:50am 6ft 7s 7s 4 7 mph 1025.1mb 51f 42f
3:50am 5.5ft 7s 7s 2 7 mph 1024.9mb 51f 42f
2:50am 5.5ft 13s 7s  -  4 mph 1024.6mb 51f 42f
1:50am 6ft 12s 6s 4 9 mph 1024.8mb 51f 41f
12:50am 6ft 13s 6s 16 20 mph 1024.6mb 51f 41f
Wed 02/22 11:50pm 6ft 13s 7s 13 16 mph 1024.3mb 51f 43f
10:50pm 6.5ft 12s 7s 11 16 mph 1024.4mb 51f 43f
9:50pm 6ft 11s 7s 4 7 mph 1024.3mb 51f 41f
8:50pm 7ft 13s 7s 18 20 mph 1024.3mb 51f 41f
7:50pm  -   -   -  11 13 mph 1023.9mb 51f 44f
6:50pm  -   -   -  16 18 mph 1023.9mb 51f 44f
5:50pm  -   -   -  13 16 mph 1023.9mb 52f 46f
4:50pm  -   -   -  11 16 mph 1024.2mb 52f 46f
3:50pm  -   -   -  13 16 mph 1024.2mb 52f 45f
2:50pm  -   -   -   -  mph 1024.4mb 52f 45f
1:50pm  -   -   -  7 11 mph 1024.8mb 51f 43f
12:50pm  -   -   -  7 11 mph 1025.1mb 52f 43f
11:50am  -   -   -   -  2 mph 1025.2mb 51f 44f
10:50am 7.5ft 13s 8s  -  4 mph 1025.3mb 51f 44f
9:50am 7.5ft 14s 8s 4 9 mph 1025.3mb 51f 44f
8:50am 8ft 13s 8s 13 16 mph 1024.4mb 51f 43f
7:50am 7.5ft 11s 8s 16 20 mph 1024.2mb 51f 44f
6:50am 8ft 14s 8s 13 18 mph 1023.8mb 51f 44f
5:50am 9ft 14s 9s 11 18 mph 1023.8mb 52f 43f